Time;durP1;ratioP1;P1;durP2;ratioP2;P2;SDS_P1;SDS_P2;PMS_P1;PMS_P2;Temp;Humidity;BMP_temperature;BMP_pressure;BME280_temperature;BME280_humidity;BME280_pressure;Samples;Min_cycle;Max_cycle;Signal;HPM_P1;HPM_P2
2022/07/19 00:00:26;;;;;;;9.35;5.47;;;16.50;84.30;;;;;;5051046;28;20461;-46
2022/07/19 00:02:52;;;;;;;7.28;5.30;;;16.50;84.60;;;;;;5033533;28;20128;-47
2022/07/19 00:05:19;;;;;;;7.05;5.22;;;16.50;84.60;;;;;;5051195;28;20032;-46
2022/07/19 00:07:46;;;;;;;9.95;5.25;;;16.50;84.70;;;;;;5051072;28;20032;-46
2022/07/19 00:10:16;;;;;;;9.80;6.55;;;16.50;84.70;;;;;;5051008;28;20029;-46
2022/07/19 00:12:42;;;;;;;7.65;5.88;;;16.50;84.80;;;;;;5051071;28;20029;-46
2022/07/19 00:15:11;;;;;;;7.38;5.25;;;16.40;85.00;;;;;;5050620;28;20114;-45
2022/07/19 00:17:44;;;;;;;8.48;5.43;;;16.40;85.00;;;;;;5051237;28;20024;-46
2022/07/19 00:20:12;;;;;;;6.68;5.32;;;16.40;85.00;;;;;;5050793;28;20036;-46
2022/07/19 00:22:39;;;;;;;8.60;5.97;;;16.40;85.10;;;;;;5051026;28;20033;-45
2022/07/19 00:25:07;;;;;;;8.38;5.65;;;16.40;85.20;;;;;;5051051;28;20025;-46
2022/07/19 00:27:34;;;;;;;8.98;6.13;;;16.40;85.10;;;;;;5050859;28;20108;-46
2022/07/19 00:30:05;;;;;;;7.15;5.38;;;16.40;85.10;;;;;;5051001;28;20025;-46
2022/07/19 00:32:32;;;;;;;11.80;6.70;;;16.40;85.20;;;;;;5050028;28;20389;-45
2022/07/19 00:35:01;;;;;;;8.85;5.57;;;16.40;85.20;;;;;;5050997;28;20021;-46
2022/07/19 00:37:30;;;;;;;8.07;6.60;;;16.40;85.30;;;;;;5050876;28;20031;-45
2022/07/19 00:39:57;;;;;;;9.48;5.03;;;16.30;85.30;;;;;;5050326;28;20100;-46
2022/07/19 00:42:26;;;;;;;7.47;5.50;;;16.30;85.20;;;;;;5033036;28;20127;-46
2022/07/19 00:44:53;;;;;;;7.35;5.40;;;16.20;85.10;;;;;;5050348;28;20084;-46
2022/07/19 00:47:21;;;;;;;8.63;5.47;;;16.30;85.20;;;;;;5066874;28;20029;-45
2022/07/19 00:49:50;;;;;;;7.70;6.38;;;16.20;85.10;;;;;;5070087;28;20111;-46
2022/07/19 00:52:20;;;;;;;8.88;6.43;;;16.20;85.20;;;;;;5070334;28;20350;-45
2022/07/19 00:54:48;;;;;;;7.95;6.55;;;16.20;85.20;;;;;;5052824;28;20036;-46
2022/07/19 00:57:15;;;;;;;7.28;6.13;;;16.20;85.20;;;;;;5070358;28;20066;-46
2022/07/19 00:59:43;;;;;;;7.60;5.63;;;16.20;85.20;;;;;;5070200;28;20039;-47
2022/07/19 01:02:12;;;;;;;8.38;5.97;;;16.10;85.20;;;;;;5069296;28;20031;-48
2022/07/19 01:04:39;;;;;;;8.65;6.20;;;16.10;85.30;;;;;;5051343;28;20024;-45
2022/07/19 01:07:07;;;;;;;8.02;6.03;;;16.10;85.40;;;;;;5069117;28;20048;-45
2022/07/19 01:09:37;;;;;;;8.32;6.13;;;16.10;85.50;;;;;;5069346;28;20028;-45
2022/07/19 01:12:05;;;;;;;8.63;6.20;;;16.10;85.50;;;;;;5069353;28;20047;-46
2022/07/19 01:14:31;;;;;;;9.27;6.72;;;16.10;85.60;;;;;;5069389;28;20056;-45
2022/07/19 01:17:02;;;;;;;9.63;6.20;;;16.10;85.60;;;;;;5052090;28;20054;-46
2022/07/19 01:19:29;;;;;;;7.93;6.15;;;16.00;85.70;;;;;;5069837;28;20021;-45
2022/07/19 01:21:56;;;;;;;8.18;6.60;;;16.00;85.70;;;;;;5069995;28;20016;-47
2022/07/19 01:24:23;;;;;;;8.02;6.20;;;15.90;85.80;;;;;;5069380;28;20056;-45
2022/07/19 01:26:50;;;;;;;8.50;6.80;;;16.00;85.90;;;;;;5069508;28;20085;-45
2022/07/19 01:29:19;;;;;;;8.60;7.50;;;15.90;85.90;;;;;;5068911;28;20029;-45
2022/07/19 01:31:46;;;;;;;9.65;7.40;;;15.90;86.10;;;;;;5068969;28;20705;-46
2022/07/19 01:34:12;;;;;;;9.18;7.55;;;15.90;86.30;;;;;;5051545;28;20031;-45
2022/07/19 01:36:39;;;;;;;8.52;7.25;;;15.90;86.30;;;;;;5069686;28;20434;-46
2022/07/19 01:39:08;;;;;;;6.93;5.97;;;15.90;86.30;;;;;;5069473;28;20118;-48
2022/07/19 01:41:35;;;;;;;8.07;6.57;;;15.90;86.30;;;;;;5051264;28;20038;-46
2022/07/19 01:44:02;;;;;;;12.13;7.45;;;15.90;86.20;;;;;;5069157;28;20661;-46
2022/07/19 01:46:29;;;;;;;11.13;8.20;;;15.90;86.30;;;;;;5051503;28;20115;-46
2022/07/19 01:48:56;;;;;;;10.73;7.53;;;15.80;86.40;;;;;;5069355;28;20035;-47
2022/07/19 01:51:22;;;;;;;10.18;7.95;;;15.80;86.50;;;;;;5069408;28;20392;-46
2022/07/19 01:53:49;;;;;;;12.55;9.40;;;15.80;86.60;;;;;;5051693;28;20029;-46
2022/07/19 01:56:21;;;;;;;9.10;8.10;;;15.80;86.60;;;;;;5051969;28;20476;-47
2022/07/19 01:58:48;;;;;;;10.20;7.90;;;15.80;86.50;;;;;;5051707;28;20127;-46
2022/07/19 02:01:15;;;;;;;12.63;8.45;;;15.70;86.50;;;;;;5051434;28;20036;-49
2022/07/19 02:03:43;;;;;;;9.32;7.93;;;15.70;86.60;;;;;;5069127;28;20032;-47
2022/07/19 02:06:10;;;;;;;10.73;8.18;;;15.70;86.60;;;;;;5069687;28;20028;-47
2022/07/19 02:08:38;;;;;;;9.10;7.68;;;15.70;86.70;;;;;;5069163;28;20021;-46
2022/07/19 02:11:34;;;;;;;11.18;8.85;;;15.70;86.70;;;;;;5069447;28;20110;-46
2022/07/19 02:13:54;;;;;;;10.43;7.22;;;15.70;86.70;;;;;;5068034;28;20043;-46
2022/07/19 02:16:21;;;;;;;10.00;8.50;;;15.70;86.70;;;;;;5068951;28;20025;-46
2022/07/19 02:18:48;;;;;;;13.02;9.35;;;15.60;86.70;;;;;;5069051;28;20025;-46
2022/07/19 02:21:17;;;;;;;10.00;8.05;;;15.60;86.80;;;;;;5069148;28;20448;-46
2022/07/19 02:23:44;;;;;;;9.13;7.37;;;15.60;86.80;;;;;;5069044;28;20342;-46
2022/07/19 02:26:13;;;;;;;9.75;7.32;;;15.60;86.70;;;;;;5051349;28;20492;-48
2022/07/19 02:28:40;;;;;;;10.25;8.38;;;15.60;86.70;;;;;;5069132;28;20071;-48
2022/07/19 02:31:06;;;;;;;9.55;7.35;;;15.50;86.80;;;;;;5069009;28;20048;-48
2022/07/19 02:33:33;;;;;;;7.22;6.20;;;15.50;86.80;;;;;;5069010;28;20039;-48
2022/07/19 02:35:59;;;;;;;11.57;7.60;;;15.50;86.90;;;;;;5068772;28;20044;-46
2022/07/19 02:38:28;;;;;;;9.98;8.15;;;15.50;86.90;;;;;;5068811;28;20037;-47
2022/07/19 02:40:55;;;;;;;9.75;7.03;;;15.50;86.90;;;;;;5051681;28;20045;-46
2022/07/19 02:43:22;;;;;;;8.73;7.32;;;15.50;86.90;;;;;;5051247;28;20025;-47
2022/07/19 02:45:49;;;;;;;9.75;6.82;;;15.50;86.90;;;;;;5068788;28;20404;-46
2022/07/19 02:48:17;;;;;;;9.25;7.38;;;15.50;86.90;;;;;;5050712;28;20031;-46
2022/07/19 02:50:48;;;;;;;8.05;6.65;;;15.50;86.80;;;;;;5051324;28;20442;-46
2022/07/19 02:53:15;;;;;;;8.35;6.78;;;15.50;86.80;;;;;;5068687;28;20060;-46
2022/07/19 02:55:44;;;;;;;8.90;6.80;;;15.40;86.80;;;;;;5068941;28;20079;-46
2022/07/19 02:58:10;;;;;;;9.25;7.22;;;15.40;86.80;;;;;;5068558;28;20354;-46
2022/07/19 03:00:37;;;;;;;11.82;8.00;;;15.40;86.90;;;;;;5068544;28;20028;-46
2022/07/19 03:03:50;;;;;;;8.57;6.95;;;15.40;86.90;;;;;;5068623;28;20025;-46
2022/07/19 03:05:54;;;;;;;8.70;6.95;;;15.40;86.90;;;;;;5058086;28;20446;-46
2022/07/19 03:08:20;;;;;;;8.30;7.05;;;15.40;86.90;;;;;;5050749;28;20024;-47
2022/07/19 03:10:47;;;;;;;9.30;6.90;;;15.40;87.00;;;;;;5068384;28;20115;-46
2022/07/19 03:13:14;;;;;;;10.05;6.88;;;15.40;87.00;;;;;;5068495;28;20033;-47
2022/07/19 03:15:41;;;;;;;10.18;7.68;;;15.40;87.10;;;;;;5068233;28;20059;-49
2022/07/19 03:18:08;;;;;;;9.65;7.40;;;15.30;87.20;;;;;;5050568;28;20123;-46
2022/07/19 03:20:35;;;;;;;10.63;7.28;;;15.30;87.20;;;;;;5050401;28;20032;-45
2022/07/19 03:23:01;;;;;;;10.23;8.15;;;15.30;87.40;;;;;;5067575;28;20024;-45
2022/07/19 03:25:28;;;;;;;9.13;7.47;;;15.30;87.40;;;;;;5071140;28;20355;-46
2022/07/19 03:27:57;;;;;;;10.70;8.40;;;15.30;87.40;;;;;;5072093;28;20036;-45
2022/07/19 03:30:22;;;;;;;14.27;7.53;;;15.30;87.50;;;;;;5071898;28;20054;-47
2022/07/19 03:32:48;;;;;;;9.70;8.02;;;15.30;87.50;;;;;;5071691;28;20029;-49
2022/07/19 03:35:14;;;;;;;10.90;8.68;;;15.40;87.60;;;;;;5053932;28;20033;-46
2022/07/19 03:37:41;;;;;;;9.93;7.65;;;15.40;87.60;;;;;;5071155;28;20452;-45
2022/07/19 03:40:08;;;;;;;11.50;8.40;;;15.30;87.70;;;;;;5071322;28;20031;-46
2022/07/19 03:42:34;;;;;;;12.15;9.35;;;15.40;87.80;;;;;;5071352;28;20078;-46
2022/07/19 03:44:59;;;;;;;10.35;9.25;;;15.40;87.80;;;;;;5071088;28;20045;-46
2022/07/19 03:47:25;;;;;;;11.43;9.45;;;15.40;87.80;;;;;;5071452;28;20387;-45
2022/07/19 03:49:53;;;;;;;13.07;9.43;;;15.40;87.80;;;;;;5071723;28;20112;-45
2022/07/19 03:52:21;;;;;;;10.10;8.80;;;15.40;87.90;;;;;;5071703;28;20074;-45
2022/07/19 03:54:46;;;;;;;10.82;8.70;;;15.40;87.90;;;;;;5087289;28;20028;-45
2022/07/19 03:57:12;;;;;;;10.13;8.15;;;15.40;88.00;;;;;;5036502;28;20032;-45
2022/07/19 03:59:37;;;;;;;10.18;8.93;;;15.50;88.00;;;;;;5033683;28;20343;-46
2022/07/19 04:02:03;;;;;;;12.18;9.77;;;15.60;88.00;;;;;;5051327;28;20029;-46
2022/07/19 04:04:29;;;;;;;13.57;9.15;;;15.60;88.00;;;;;;5051307;28;20111;-45
2022/07/19 04:06:55;;;;;;;9.93;8.43;;;15.60;88.00;;;;;;5033678;28;20368;-45
2022/07/19 04:09:21;;;;;;;9.68;8.27;;;15.60;88.10;;;;;;5051259;28;20025;-45
2022/07/19 04:11:46;;;;;;;9.90;8.55;;;15.70;88.10;;;;;;5051191;28;20079;-45
2022/07/19 04:14:12;;;;;;;11.55;8.82;;;15.80;88.10;;;;;;5051164;28;20048;-45
2022/07/19 04:16:37;;;;;;;10.77;7.95;;;15.80;88.10;;;;;;5051391;28;20028;-45
2022/07/19 04:19:03;;;;;;;9.30;8.30;;;15.90;88.20;;;;;;5033612;28;20039;-45
2022/07/19 04:21:29;;;;;;;10.85;8.45;;;15.90;88.20;;;;;;5033562;28;20035;-45
2022/07/19 04:23:56;;;;;;;13.35;9.23;;;16.00;88.20;;;;;;5050569;28;20036;-45
2022/07/19 04:26:23;;;;;;;11.98;9.02;;;16.00;88.10;;;;;;5050936;28;20353;-46
2022/07/19 04:28:48;;;;;;;10.25;7.78;;;16.10;88.10;;;;;;5051062;28;20515;-45
2022/07/19 04:31:17;;;;;;;10.43;9.13;;;16.20;88.10;;;;;;5066357;28;20037;-45
2022/07/19 04:33:43;;;;;;;9.50;8.50;;;16.20;88.10;;;;;;5050903;28;20033;-45
2022/07/19 04:36:10;;;;;;;11.38;6.85;;;16.20;88.10;;;;;;5049808;28;20103;-46
2022/07/19 04:38:37;;;;;;;9.98;8.65;;;16.30;88.10;;;;;;5050588;28;20040;-45
2022/07/19 04:41:04;;;;;;;10.80;9.57;;;16.40;88.10;;;;;;5032441;28;20039;-45
2022/07/19 04:43:30;;;;;;;13.90;9.52;;;16.40;88.20;;;;;;5050079;28;20039;-45
2022/07/19 04:45:59;;;;;;;9.63;7.82;;;16.40;88.20;;;;;;5032461;28;20040;-46
2022/07/19 04:48:29;;;;;;;9.48;8.30;;;16.50;88.30;;;;;;5050395;28;20052;-45
2022/07/19 04:50:59;;;;;;;9.50;7.65;;;16.60;88.20;;;;;;5065835;28;20032;-45
2022/07/19 04:53:26;;;;;;;10.82;8.80;;;16.60;88.30;;;;;;5050383;28;20434;-46
2022/07/19 04:55:55;;;;;;;9.48;7.97;;;16.80;88.30;;;;;;5050469;28;20063;-46
2022/07/19 04:58:22;;;;;;;11.88;7.75;;;16.80;88.30;;;;;;5058439;28;20028;-45
2022/07/19 05:00:49;;;;;;;10.10;9.02;;;16.90;88.30;;;;;;5069647;28;20130;-45
2022/07/19 05:03:16;;;;;;;13.15;9.77;;;16.90;88.30;;;;;;5070160;28;20021;-46
2022/07/19 05:05:41;;;;;;;12.52;9.93;;;17.00;88.30;;;;;;5070126;28;20028;-45
2022/07/19 05:08:07;;;;;;;13.60;11.35;;;17.10;88.30;;;;;;5052517;28;20035;-47
2022/07/19 05:10:35;;;;;;;19.50;10.10;;;17.20;88.30;;;;;;5051825;28;20032;-45
2022/07/19 05:13:01;;;;;;;15.88;11.27;;;17.30;88.30;;;;;;5051696;28;20025;-45
2022/07/19 05:15:30;;;;;;;15.90;9.98;;;17.40;88.20;;;;;;5050301;28;20024;-46
2022/07/19 05:17:55;;;;;;;12.82;9.77;;;17.40;88.00;;;;;;5069401;28;20381;-46
2022/07/19 05:20:21;;;;;;;15.35;12.10;;;17.50;87.90;;;;;;5050785;28;20037;-45
2022/07/19 05:22:47;;;;;;;14.13;10.85;;;17.50;87.70;;;;;;5067543;28;20051;-47
2022/07/19 05:25:12;;;;;;;15.77;11.52;;;17.60;87.60;;;;;;5068780;28;20025;-46
2022/07/19 05:27:40;;;;;;;14.18;10.90;;;17.70;87.40;;;;;;5066753;28;20024;-45
2022/07/19 05:30:06;;;;;;;13.40;10.43;;;17.80;87.20;;;;;;5064338;28;20060;-45
2022/07/19 05:32:33;;;;;;;11.98;10.50;;;17.90;87.10;;;;;;5067749;28;20639;-45
2022/07/19 05:34:59;;;;;;;15.35;11.52;;;18.00;86.80;;;;;;5069373;28;20050;-46
2022/07/19 05:37:26;;;;;;;13.90;10.85;;;18.20;86.60;;;;;;5069022;28;20032;-47
2022/07/19 05:39:52;;;;;;;15.60;11.27;;;18.30;86.50;;;;;;5069193;28;20075;-47
2022/07/19 05:42:18;;;;;;;13.40;11.43;;;18.40;86.20;;;;;;5050129;28;20105;-47
2022/07/19 05:44:43;;;;;;;12.32;10.77;;;18.50;85.90;;;;;;5063437;28;20438;-47
2022/07/19 05:47:09;;;;;;;12.48;10.40;;;18.60;85.70;;;;;;5050281;28;20027;-46
2022/07/19 05:49:34;;;;;;;15.32;12.38;;;18.70;85.40;;;;;;5049319;28;20461;-47
2022/07/19 05:52:00;;;;;;;13.80;10.75;;;18.90;85.30;;;;;;5066800;28;20465;-46
2022/07/19 05:54:26;;;;;;;12.60;9.55;;;19.00;85.20;;;;;;5050965;28;20058;-46
2022/07/19 05:56:52;;;;;;;11.30;9.20;;;19.20;85.10;;;;;;5048134;28;20149;-46
2022/07/19 05:59:20;;;;;;;10.50;9.40;;;19.40;84.90;;;;;;5066264;28;20078;-46
2022/07/19 06:01:48;;;;;;;12.20;9.10;;;19.70;84.50;;;;;;5066094;28;20021;-48
2022/07/19 06:04:15;;;;;;;12.52;9.68;;;19.90;83.80;;;;;;5050631;28;20031;-49
2022/07/19 06:06:43;;;;;;;13.85;8.65;;;20.20;82.90;;;;;;5067887;28;20112;-46
2022/07/19 06:09:11;;;;;;;9.77;7.57;;;20.30;81.20;;;;;;5068009;28;20029;-47
2022/07/19 06:11:40;;;;;;;11.73;9.15;;;20.40;81.20;;;;;;5067523;28;20020;-51
2022/07/19 06:14:08;;;;;;;10.88;8.40;;;20.50;80.40;;;;;;5050590;28;20120;-47
2022/07/19 06:16:35;;;;;;;11.75;8.73;;;20.70;79.80;;;;;;5066359;28;20050;-48
2022/07/19 06:19:02;;;;;;;12.70;8.05;;;20.90;78.40;;;;;;5050584;28;20031;-47
2022/07/19 06:21:28;;;;;;;11.90;7.68;;;20.90;78.60;;;;;;5068075;28;20096;-47
2022/07/19 06:23:56;;;;;;;10.23;7.80;;;21.00;78.50;;;;;;5068050;28;20526;-47
2022/07/19 06:26:23;;;;;;;11.52;8.60;;;21.20;79.20;;;;;;5068887;28;20021;-48
2022/07/19 06:28:48;;;;;;;8.13;7.15;;;21.30;79.30;;;;;;5068830;28;20100;-49
2022/07/19 06:31:16;;;;;;;10.63;6.30;;;21.40;79.70;;;;;;5064990;28;20116;-47
2022/07/19 06:33:43;;;;;;;8.75;6.55;;;21.40;79.40;;;;;;5059697;28;20024;-48
2022/07/19 06:36:09;;;;;;;9.90;7.50;;;21.50;79.10;;;;;;5083194;28;20067;-52
2022/07/19 06:38:35;;;;;;;8.52;7.07;;;21.60;79.30;;;;;;5050718;28;20017;-48
2022/07/19 06:41:01;;;;;;;8.90;6.88;;;21.70;78.80;;;;;;5050655;28;20556;-47
2022/07/19 06:43:27;;;;;;;11.25;6.70;;;21.80;78.50;;;;;;5051201;28;20020;-47
2022/07/19 06:45:52;;;;;;;8.48;6.63;;;21.90;78.10;;;;;;5051118;28;20036;-48
2022/07/19 06:48:18;;;;;;;8.38;6.70;;;22.00;77.90;;;;;;5050976;28;20491;-47
2022/07/19 06:50:46;;;;;;;12.15;6.57;;;22.00;76.90;;;;;;5068123;28;20116;-47
2022/07/19 06:53:12;;;;;;;7.75;6.05;;;22.10;76.50;;;;;;5068706;28;20119;-47
2022/07/19 06:55:39;;;;;;;6.18;5.55;;;22.20;75.70;;;;;;5068640;28;20113;-47
2022/07/19 06:58:05;;;;;;;7.40;5.57;;;22.30;75.70;;;;;;5067236;28;20036;-48
2022/07/19 07:00:30;;;;;;;10.10;6.75;;;22.40;74.30;;;;;;5071759;28;20029;-47
2022/07/19 07:03:00;;;;;;;8.90;5.45;;;22.50;73.40;;;;;;5047663;28;20028;-50
2022/07/19 07:05:26;;;;;;;7.00;5.55;;;22.50;72.60;;;;;;5066180;28;20025;-47
2022/07/19 07:07:54;;;;;;;6.60;5.60;;;22.60;71.80;;;;;;5067502;28;20067;-48
2022/07/19 07:10:21;;;;;;;7.22;5.03;;;22.70;72.70;;;;;;5069697;28;20032;-48
2022/07/19 07:12:49;;;;;;;6.80;5.35;;;22.80;69.90;;;;;;5070186;28;20039;-47
2022/07/19 07:15:16;;;;;;;7.35;5.78;;;22.90;68.60;;;;;;5053632;28;20881;-47
2022/07/19 07:17:43;;;;;;;7.05;5.43;;;23.00;68.60;;;;;;5067768;28;20046;-48
2022/07/19 07:20:11;;;;;;;6.88;5.28;;;23.10;68.10;;;;;;5071601;28;20039;-47
2022/07/19 07:22:38;;;;;;;6.50;4.60;;;23.20;65.40;;;;;;5070543;28;20449;-51
2022/07/19 07:25:06;;;;;;;6.80;4.95;;;23.30;63.80;;;;;;5071251;28;20082;-47
2022/07/19 07:27:33;;;;;;;9.45;6.03;;;23.40;64.30;;;;;;5053642;28;20033;-48
2022/07/19 07:30:03;;;;;;;6.28;4.50;;;23.60;62.60;;;;;;5037138;28;20533;-47
2022/07/19 07:32:30;;;;;;;7.25;4.60;;;23.80;63.40;;;;;;5070712;28;20361;-47
2022/07/19 07:34:57;;;;;;;8.02;5.07;;;24.20;64.00;;;;;;5071201;28;20036;-47
2022/07/19 07:37:26;;;;;;;6.03;4.22;;;24.60;61.60;;;;;;5070448;28;20081;-53
2022/07/19 07:39:53;;;;;;;8.03;5.00;;;25.10;62.80;;;;;;5036447;28;20025;-48
2022/07/19 07:42:21;;;;;;;6.57;4.60;;;25.60;58.90;;;;;;5053178;28;20029;-51
2022/07/19 07:44:48;;;;;;;5.68;4.35;;;26.20;57.10;;;;;;5070541;28;20075;-49
2022/07/19 07:47:14;;;;;;;6.80;4.57;;;26.90;56.20;;;;;;5071117;28;20392;-49
2022/07/19 07:49:43;;;;;;;8.00;5.82;;;27.50;55.10;;;;;;5050109;28;20178;-50
2022/07/19 07:52:10;;;;;;;6.18;4.82;;;27.90;53.80;;;;;;5068220;28;20134;-50
2022/07/19 07:54:38;;;;;;;7.45;4.32;;;28.40;55.60;;;;;;5071177;28;20040;-50
2022/07/19 07:57:05;;;;;;;6.10;4.95;;;28.90;51.70;;;;;;5053067;28;20028;-50
2022/07/19 07:59:31;;;;;;;8.00;4.57;;;29.20;49.80;;;;;;5071096;28;20021;-50
2022/07/19 08:02:01;;;;;;;7.45;4.60;;;29.50;50.10;;;;;;5070536;28;20028;-50
2022/07/19 08:04:27;;;;;;;8.38;5.20;;;29.80;49.20;;;;;;5070697;28;20033;-51
2022/07/19 08:06:54;;;;;;;6.18;4.53;;;30.00;47.30;;;;;;5069568;28;20029;-52
2022/07/19 08:09:24;;;;;;;6.40;4.75;;;30.10;45.50;;;;;;5052663;28;20456;-47
2022/07/19 08:11:51;;;;;;;6.18;3.92;;;30.40;46.40;;;;;;5069035;28;20017;-49
2022/07/19 08:14:18;;;;;;;6.70;5.18;;;30.70;45.10;;;;;;5062110;28;20450;-50
2022/07/19 08:16:46;;;;;;;6.95;4.57;;;31.00;45.30;;;;;;5062025;28;20041;-51
2022/07/19 08:19:13;;;;;;;8.27;5.45;;;31.10;44.30;;;;;;5070654;28;20433;-50
2022/07/19 08:21:40;;;;;;;8.07;4.03;;;31.00;43.30;;;;;;5052099;28;20033;-49
2022/07/19 08:24:06;;;;;;;6.55;4.55;;;31.20;42.70;;;;;;5070662;28;20060;-49
2022/07/19 08:26:34;;;;;;;9.15;4.78;;;31.60;43.80;;;;;;5069825;28;20091;-48
2022/07/19 08:29:01;;;;;;;6.60;4.15;;;31.70;42.70;;;;;;5070389;28;20040;-48
2022/07/19 08:31:28;;;;;;;7.07;4.00;;;31.80;41.00;;;;;;5070406;28;20032;-47
2022/07/19 08:33:55;;;;;;;7.15;3.35;;;32.00;41.80;;;;;;5069867;28;20119;-49
2022/07/19 08:36:22;;;;;;;4.05;3.35;;;31.80;38.20;;;;;;5070157;28;20035;-48
2022/07/19 08:38:49;;;;;;;6.95;4.35;;;31.60;40.50;;;;;;5069799;28;20067;-48
2022/07/19 08:41:17;;;;;;;5.32;4.07;;;32.00;41.50;;;;;;5069763;28;20032;-47
2022/07/19 08:43:42;;;;;;;5.35;3.47;;;32.10;43.60;;;;;;5068505;28;20044;-48
2022/07/19 08:46:10;;;;;;;6.68;4.18;;;32.30;40.10;;;;;;5069775;28;20032;-48
2022/07/19 08:48:39;;;;;;;9.13;4.13;;;32.60;41.10;;;;;;5052227;28;20025;-49
2022/07/19 08:51:06;;;;;;;;;;;32.80;42.50;;;;;;5070414;28;20035;-49
2022/07/19 08:53:38;;;;;;;6.25;4.13;;;32.80;40.40;;;;;;5069996;28;19974;-48
2022/07/19 08:57:56;;;;;;;6.10;3.90;;;32.80;39.30;;;;;;5069386;28;20047;-48
2022/07/19 08:58:50;;;;;;;5.85;3.80;;;32.90;41.10;;;;;;5069248;28;20028;-49
2022/07/19 09:01:20;;;;;;;7.57;4.35;;;32.70;40.00;;;;;;5069002;28;20090;-47
2022/07/19 09:04:10;;;;;;;6.90;4.45;;;32.80;40.00;;;;;;5051540;28;20039;-47
2022/07/19 09:06:51;;;;;;;7.82;4.80;;;32.90;40.10;;;;;;5050536;28;20373;-50
2022/07/19 09:09:18;;;;;;;5.93;3.67;;;33.00;39.40;;;;;;5069041;28;20424;-48
2022/07/19 09:11:50;;;;;;;6.95;4.47;;;32.90;38.90;;;;;;5051226;28;20418;-48
2022/07/19 09:14:24;;;;;;;5.60;3.65;;;32.90;39.50;;;;;;5068986;28;20474;-49
2022/07/19 09:17:19;;;;;;;9.35;3.78;;;33.20;38.90;;;;;;5052274;28;20086;-49
2022/07/19 09:19:49;;;;;;;8.32;4.10;;;33.20;39.20;;;;;;5053120;28;20464;-48
2022/07/19 09:22:19;;;;;;;4.85;3.72;;;33.10;37.40;;;;;;5050793;28;20394;-50
2022/07/19 09:24:53;;;;;;;6.32;3.40;;;33.00;41.70;;;;;;5068935;28;20084;-50
2022/07/19 09:27:25;;;;;;;4.38;3.53;;;33.10;38.40;;;;;;5068794;28;20077;-47
2022/07/19 09:29:56;;;;;;;5.70;3.67;;;33.20;38.70;;;;;;5069039;28;20103;-48
2022/07/19 09:32:27;;;;;;;4.78;3.05;;;33.30;37.90;;;;;;5068337;28;20035;-50
2022/07/19 09:34:58;;;;;;;6.22;3.33;;;33.10;38.30;;;;;;5068862;28;20037;-47
2022/07/19 09:37:32;;;;;;;6.55;4.00;;;33.10;36.50;;;;;;5068578;28;20050;-48
2022/07/19 09:40:02;;;;;;;9.07;4.10;;;33.20;38.40;;;;;;5050784;28;20116;-48
2022/07/19 09:42:46;;;;;;;6.93;4.28;;;33.20;38.00;;;;;;5067535;28;20028;-49
2022/07/19 09:45:17;;;;;;;6.88;3.10;;;33.30;38.40;;;;;;5066317;28;20055;-48
2022/07/19 09:47:46;;;;;;;5.22;3.35;;;33.10;38.60;;;;;;5050287;28;20024;-50
2022/07/19 09:50:16;;;;;;;4.80;3.20;;;33.10;37.30;;;;;;5050452;28;20025;-48
2022/07/19 09:52:50;;;;;;;5.97;3.55;;;33.10;37.80;;;;;;5067420;28;20040;-50
2022/07/19 09:55:19;;;;;;;5.93;3.33;;;33.00;38.20;;;;;;5051573;28;20384;-53
2022/07/19 09:57:50;;;;;;;8.68;4.25;;;33.10;38.20;;;;;;5044632;28;20016;-53
2022/07/19 10:00:22;;;;;;;6.28;3.63;;;33.00;38.60;;;;;;5051201;28;20460;-49
2022/07/19 10:02:53;;;;;;;5.07;3.10;;;33.00;38.90;;;;;;5067936;28;20028;-52
2022/07/19 10:05:21;;;;;;;5.03;3.05;;;33.40;41.00;;;;;;5068162;28;20079;-53
2022/07/19 10:07:48;;;;;;;4.82;3.83;;;33.40;37.50;;;;;;5067816;28;20031;-49
2022/07/19 10:10:18;;;;;;;4.15;3.08;;;33.60;38.30;;;;;;5049730;28;20028;-54
2022/07/19 10:12:48;;;;;;;4.97;3.65;;;33.40;37.90;;;;;;5066914;28;20032;-52
2022/07/19 10:15:17;;;;;;;4.55;3.20;;;33.30;38.50;;;;;;5063622;28;20434;-49
2022/07/19 10:18:03;;;;;;;5.32;3.25;;;32.90;36.90;;;;;;5049150;28;20060;-50
2022/07/19 10:20:30;;;;;;;4.95;2.72;;;32.90;37.70;;;;;;5047045;28;20171;-48
2022/07/19 10:23:01;;;;;;;4.93;2.95;;;33.30;37.40;;;;;;5066541;28;20052;-50
2022/07/19 10:25:47;;;;;;;5.65;3.03;;;33.50;37.60;;;;;;5067038;28;20040;-50
2022/07/19 10:28:38;;;;;;;7.25;2.80;;;33.70;39.10;;;;;;5063183;28;20037;-49
2022/07/19 10:31:42;;;;;;;4.85;2.80;;;33.70;36.60;;;;;;5038215;28;20185;-48
2022/07/19 10:34:20;;;;;;;5.35;3.50;;;33.40;35.70;;;;;;5069111;28;20473;-48
2022/07/19 10:36:48;;;;;;;5.90;3.58;;;33.40;37.40;;;;;;5038688;28;20458;-47
2022/07/19 10:39:33;;;;;;;6.63;3.08;;;33.20;36.40;;;;;;5071725;28;20024;-49
2022/07/19 10:42:22;;;;;;;5.70;3.00;;;33.20;37.90;;;;;;5071124;28;20047;-47
2022/07/19 10:44:59;;;;;;;4.40;3.15;;;33.40;36.50;;;;;;5068962;28;20112;-47
2022/07/19 10:47:40;;;;;;;4.05;2.88;;;33.40;37.80;;;;;;5042790;28;20058;-47
2022/07/19 10:50:09;;;;;;;5.35;3.15;;;33.30;37.20;;;;;;5071266;28;20311;-48
2022/07/19 10:52:42;;;;;;;4.68;3.00;;;33.30;39.50;;;;;;5070343;28;20040;-48
2022/07/19 10:55:36;;;;;;;5.85;2.78;;;33.40;38.70;;;;;;5068643;28;20028;-47
2022/07/19 10:58:12;;;;;;;5.68;3.25;;;33.70;37.20;;;;;;5069341;28;20024;-50
2022/07/19 11:00:51;;;;;;;5.25;3.17;;;33.80;38.30;;;;;;5068633;28;20032;-49
2022/07/19 11:03:35;;;;;;;;;;;33.80;37.80;;;;;;5068998;28;20027;-47
2022/07/19 11:06:03;;;;;;;5.50;2.80;;;33.70;39.00;;;;;;5069564;28;19942;-50
2022/07/19 11:08:36;;;;;;;8.68;3.38;;;33.90;38.20;;;;;;5053586;28;20089;-48
2022/07/19 11:11:06;;;;;;;6.20;3.13;;;34.00;37.80;;;;;;5051801;28;20074;-48
2022/07/19 11:13:35;;;;;;;6.05;3.17;;;34.10;38.40;;;;;;5051226;28;20346;-47
2022/07/19 11:16:03;;;;;;;4.13;2.95;;;34.10;37.80;;;;;;5071618;28;20025;-49
2022/07/19 11:18:33;;;;;;;7.30;3.13;;;34.00;37.40;;;;;;5052710;28;20039;-48
2022/07/19 11:21:02;;;;;;;4.78;3.08;;;33.70;38.00;;;;;;5070855;28;20370;-48
2022/07/19 11:23:34;;;;;;;7.30;3.17;;;33.40;37.80;;;;;;5070992;28;20021;-47
2022/07/19 11:26:20;;;;;;;5.00;2.58;;;33.40;37.60;;;;;;5071432;28;20025;-50
2022/07/19 11:28:48;;;;;;;9.63;3.45;;;33.50;38.80;;;;;;5046570;28;20025;-49
2022/07/19 11:31:21;;;;;;;5.20;2.90;;;33.40;38.80;;;;;;5070310;28;20165;-47
2022/07/19 11:33:58;;;;;;;6.05;3.25;;;33.60;39.50;;;;;;5055516;28;20455;-48
2022/07/19 11:36:28;;;;;;;7.60;2.85;;;33.90;39.40;;;;;;5053223;28;20442;-48
2022/07/19 11:38:59;;;;;;;3.83;2.83;;;33.90;36.30;;;;;;5070851;28;20461;-48
2022/07/19 11:41:27;;;;;;;5.65;2.90;;;34.00;36.80;;;;;;5070123;28;20035;-53
2022/07/19 11:44:01;;;;;;;5.75;2.70;;;34.00;36.70;;;;;;5069773;28;20043;-51
2022/07/19 11:46:37;;;;;;;6.40;3.20;;;33.80;36.80;;;;;;5052963;28;20049;-50
2022/07/19 11:49:05;;;;;;;5.15;3.00;;;33.90;38.20;;;;;;5070525;28;20064;-51
2022/07/19 11:51:36;;;;;;;4.85;3.53;;;34.00;39.30;;;;;;5068387;28;20029;-49
2022/07/19 11:54:04;;;;;;;4.55;3.00;;;34.10;38.40;;;;;;5052877;28;20036;-48
2022/07/19 11:56:35;;;;;;;6.25;2.80;;;34.10;36.50;;;;;;5068660;28;20353;-53
2022/07/19 11:59:07;;;;;;;5.07;3.08;;;34.00;39.80;;;;;;5086445;28;20033;-51
2022/07/19 12:01:38;;;;;;;5.38;2.85;;;34.10;40.70;;;;;;5062804;28;20032;-50
2022/07/19 12:04:09;;;;;;;4.35;2.95;;;33.80;39.10;;;;;;5052732;28;20035;-50
2022/07/19 12:06:59;;;;;;;4.05;3.10;;;33.70;38.10;;;;;;5070107;28;20021;-50
2022/07/19 12:09:30;;;;;;;4.05;3.08;;;33.60;37.50;;;;;;5070198;28;20034;-49
2022/07/19 12:11:57;;;;;;;6.32;3.17;;;33.60;39.60;;;;;;5055334;28;20330;-49
2022/07/19 12:14:34;;;;;;;3.70;2.45;;;33.70;39.70;;;;;;5070256;28;20036;-53
2022/07/19 12:17:20;;;;;;;6.75;2.92;;;33.70;38.20;;;;;;5070554;28;20028;-49
2022/07/19 12:19:49;;;;;;;6.25;2.70;;;33.60;39.10;;;;;;5069732;28;20082;-51
2022/07/19 12:22:36;;;;;;;5.70;2.72;;;33.70;41.10;;;;;;5069107;28;20022;-50
2022/07/19 12:25:05;;;;;;;8.68;3.13;;;33.80;39.80;;;;;;5060850;28;20021;-47
2022/07/19 12:27:32;;;;;;;6.05;3.30;;;33.70;38.00;;;;;;5069959;28;20032;-47
2022/07/19 12:30:02;;;;;;;4.63;2.70;;;33.40;38.30;;;;;;5052644;28;20025;-47
2022/07/19 12:32:29;;;;;;;5.65;2.72;;;33.50;39.50;;;;;;5068913;28;20016;-48
2022/07/19 12:35:05;;;;;;;4.70;2.67;;;33.60;40.40;;;;;;5053365;28;20019;-48
2022/07/19 12:37:43;;;;;;;4.60;2.70;;;33.60;40.00;;;;;;5069934;28;20021;-49
2022/07/19 12:40:25;;;;;;;5.60;2.80;;;33.70;40.10;;;;;;5052752;28;20028;-49
2022/07/19 12:43:06;;;;;;;6.28;3.10;;;33.70;42.70;;;;;;5069561;28;20037;-47
2022/07/19 12:45:43;;;;;;;4.93;3.38;;;33.70;38.20;;;;;;5052330;28;20408;-47
2022/07/19 12:48:13;;;;;;;7.18;3.47;;;33.60;38.60;;;;;;5069598;28;20024;-48
2022/07/19 12:50:57;;;;;;;6.63;2.90;;;33.50;40.60;;;;;;5069751;28;20028;-48
2022/07/19 12:53:27;;;;;;;6.28;3.25;;;33.40;37.30;;;;;;5036116;28;20163;-47